Time;durP1;ratioP1;P1;durP2;ratioP2;P2;SDS_P1;SDS_P2;PMS_P1;PMS_P2;Temp;Humidity;BMP_temperature;BMP_pressure;BME280_temperature;BME280_humidity;BME280_pressure;Samples;Min_cycle;Max_cycle;Signal;HPM_P1;HPM_P2
2022/12/14 00:00:44;;;;;;;61.92;6.68;;;;;;;;;;5011227;28;20018;-49
2022/12/14 00:03:12;;;;;;;51.30;7.00;;;;;;;;;;5011160;28;20558;-54
2022/12/14 00:05:39;;;;;;;49.90;6.80;;;;;;;;;;5011360;28;20044;-52
2022/12/14 00:08:06;;;;;;;62.63;8.38;;;;;;;;;;5011020;28;20026;-54
2022/12/14 00:10:34;;;;;;;52.85;8.90;;;;;;;;;;5011225;28;20038;-53
2022/12/14 00:13:01;;;;;;;56.10;8.52;;;;;;;;;;5011576;28;20428;-55
2022/12/14 00:15:28;;;;;;;42.53;7.72;;;;;;;;;;5011049;28;20033;-51
2022/12/14 00:17:55;;;;;;;45.33;7.72;;;;;;;;;;5011270;28;20154;-51
2022/12/14 00:20:22;;;;;;;42.92;6.97;;;;;;;;;;5011189;28;20553;-61
2022/12/14 00:22:49;;;;;;;71.28;8.55;;;;;;;;;;5010780;28;20104;-58
2022/12/14 00:25:16;;;;;;;61.58;6.95;;;;;;;;;;5009971;28;20383;-60
2022/12/14 00:27:44;;;;;;;64.15;7.97;;;;;;;;;;5011162;28;20030;-59
2022/12/14 00:30:12;;;;;;;80.15;8.50;;;;;;;;;;5010599;28;20041;-58
2022/12/14 00:32:39;;;;;;;56.38;6.88;;;;;;;;;;5011222;28;20053;-62
2022/12/14 00:35:08;;;;;;;62.42;6.65;;;;;;;;;;5014877;28;20109;-61
2022/12/14 00:37:35;;;;;;;52.90;5.90;;;;;;;;;;5014307;28;20034;-60
2022/12/14 00:40:02;;;;;;;45.65;5.50;;;;;;;;;;5014385;28;20022;-61
2022/12/14 00:42:29;;;;;;;42.78;4.50;;;;;;;;;;5014535;28;20476;-59
2022/12/14 00:44:56;;;;;;;43.70;4.82;;;;;;;;;;5012858;28;20034;-57
2022/12/14 00:47:23;;;;;;;53.28;5.82;;;;;;;;;;5014409;28;20054;-58
2022/12/14 00:49:51;;;;;;;51.10;7.03;;;;;;;;;;5014492;28;20101;-59
2022/12/14 00:52:18;;;;;;;62.30;7.45;;;;;;;;;;5005068;28;20033;-58
2022/12/14 00:54:45;;;;;;;53.58;5.97;;;;;;;;;;4996946;28;20157;-59
2022/12/14 00:57:12;;;;;;;37.28;4.20;;;;;;;;;;4993717;28;20039;-59
2022/12/14 00:59:39;;;;;;;53.47;5.55;;;;;;;;;;4994075;28;20053;-59
2022/12/14 01:02:06;;;;;;;82.75;6.80;;;;;;;;;;4994842;28;20068;-53
2022/12/14 01:04:32;;;;;;;45.80;5.05;;;;;;;;;;4996318;28;20023;-58
2022/12/14 01:06:59;;;;;;;34.05;4.20;;;;;;;;;;5013629;28;20092;-61
2022/12/14 01:09:26;;;;;;;46.42;5.03;;;;;;;;;;5007560;28;20038;-59
2022/12/14 01:11:54;;;;;;;32.42;3.45;;;;;;;;;;5001121;28;20034;-59
2022/12/14 01:14:21;;;;;;;42.13;4.72;;;;;;;;;;4994252;28;20030;-60
2022/12/14 01:16:48;;;;;;;28.20;3.83;;;;;;;;;;4999548;28;20507;-57
2022/12/14 01:19:15;;;;;;;44.05;4.55;;;;;;;;;;4994360;28;20025;-59
2022/12/14 01:21:42;;;;;;;29.90;3.47;;;;;;;;;;5001304;28;20026;-59
2022/12/14 01:24:09;;;;;;;38.80;4.25;;;;;;;;;;5008800;28;20037;-58
2022/12/14 01:26:37;;;;;;;57.28;5.30;;;;;;;;;;4994699;28;20050;-57
2022/12/14 01:29:05;;;;;;;47.75;3.97;;;;;;;;;;4995615;28;20030;-58
2022/12/14 01:31:33;;;;;;;40.38;3.55;;;;;;;;;;4990169;28;20643;-59
2022/12/14 01:34:00;;;;;;;24.20;2.60;;;;;;;;;;4992712;28;20035;-56
2022/12/14 01:36:29;;;;;;;24.42;3.00;;;;;;;;;;4992812;28;20030;-55
2022/12/14 01:38:57;;;;;;;26.17;3.08;;;;;;;;;;4993621;28;20022;-57
2022/12/14 01:41:25;;;;;;;41.60;4.05;;;;;;;;;;4994161;28;20141;-59
2022/12/14 01:43:52;;;;;;;19.40;2.67;;;;;;;;;;4989751;28;20035;-55
2022/12/14 01:46:22;;;;;;;31.02;3.17;;;;;;;;;;4992374;28;20034;-53
2022/12/14 01:48:51;;;;;;;34.42;3.38;;;;;;;;;;4992647;28;20052;-55
2022/12/14 01:51:18;;;;;;;33.88;3.03;;;;;;;;;;4981727;28;20030;-57
2022/12/14 01:53:46;;;;;;;26.02;3.38;;;;;;;;;;4982373;28;20022;-55
2022/12/14 01:56:13;;;;;;;34.55;4.40;;;;;;;;;;4983726;28;20030;-56
2022/12/14 01:58:40;;;;;;;29.98;3.78;;;;;;;;;;4979231;28;20037;-56
2022/12/14 02:01:10;;;;;;;31.70;3.60;;;;;;;;;;4981818;28;20026;-53
2022/12/14 02:03:43;;;;;;;33.50;4.20;;;;;;;;;;4982059;28;20042;-56
2022/12/14 02:06:16;;;;;;;27.45;3.20;;;;;;;;;;4991951;28;20095;-53
2022/12/14 02:08:44;;;;;;;28.15;3.17;;;;;;;;;;4991694;28;20125;-53
2022/12/14 02:11:11;;;;;;;20.55;2.78;;;;;;;;;;4992349;28;20068;-57
2022/12/14 02:13:41;;;;;;;25.02;2.60;;;;;;;;;;4991829;28;20061;-55
2022/12/14 02:16:09;;;;;;;21.63;2.45;;;;;;;;;;4989673;28;20567;-54
2022/12/14 02:18:36;;;;;;;25.30;3.20;;;;;;;;;;4992258;28;20053;-56
2022/12/14 02:21:18;;;;;;;19.90;2.00;;;;;;;;;;4993065;28;20428;-52
2022/12/14 02:24:03;;;;;;;21.92;2.35;;;;;;;;;;4992472;28;20905;-53
2022/12/14 02:26:48;;;;;;;32.58;2.30;;;;;;;;;;4992455;28;20101;-55
2022/12/14 02:29:15;;;;;;;34.85;3.03;;;;;;;;;;4992779;28;20121;-54
2022/12/14 02:31:42;;;;;;;36.70;3.13;;;;;;;;;;4992935;28;20030;-56
2022/12/14 02:34:27;;;;;;;33.65;2.92;;;;;;;;;;4992464;28;20117;-56
2022/12/14 02:37:01;;;;;;;17.45;1.60;;;;;;;;;;4992651;28;20037;-55
2022/12/14 02:39:28;;;;;;;22.55;1.80;;;;;;;;;;4992782;28;20500;-56
2022/12/14 02:41:55;;;;;;;39.75;3.25;;;;;;;;;;4992812;28;20381;-53
2022/12/14 02:44:21;;;;;;;18.02;2.20;;;;;;;;;;4992563;28;20038;-52
2022/12/14 02:47:10;;;;;;;14.32;1.67;;;;;;;;;;4992981;28;20104;-53
2022/12/14 02:50:00;;;;;;;18.45;1.70;;;;;;;;;;4993135;28;20038;-56
2022/12/14 02:52:27;;;;;;;22.65;1.65;;;;;;;;;;4993256;28;20033;-52
2022/12/14 02:55:12;;;;;;;16.63;2.15;;;;;;;;;;4993114;28;20851;-54
2022/12/14 02:57:39;;;;;;;17.40;1.90;;;;;;;;;;4992868;28;20030;-54
2022/12/14 03:00:07;;;;;;;18.30;1.85;;;;;;;;;;4992161;28;20117;-54
2022/12/14 03:02:38;;;;;;;16.90;1.92;;;;;;;;;;4992217;28;20058;-55
2022/12/14 03:05:05;;;;;;;17.10;1.75;;;;;;;;;;4992916;28;20045;-52
2022/12/14 03:07:58;;;;;;;19.30;1.95;;;;;;;;;;4992225;28;20054;-52
2022/12/14 03:10:29;;;;;;;14.02;1.92;;;;;;;;;;4990488;28;20054;-52
2022/12/14 03:13:01;;;;;;;12.20;1.70;;;;;;;;;;4971875;28;20070;-55
2022/12/14 03:15:29;;;;;;;16.10;2.28;;;;;;;;;;4973458;28;20413;-53
2022/12/14 03:17:59;;;;;;;22.98;2.13;;;;;;;;;;4973537;28;20062;-55
2022/12/14 03:20:29;;;;;;;20.48;1.98;;;;;;;;;;4973367;28;20552;-55
2022/12/14 03:23:07;;;;;;;17.15;2.13;;;;;;;;;;4973490;28;20477;-56
2022/12/14 03:25:44;;;;;;;13.48;2.13;;;;;;;;;;4973375;28;20034;-58
2022/12/14 03:28:18;;;;;;;13.77;2.53;;;;;;;;;;4973282;28;20120;-57
2022/12/14 03:30:59;;;;;;;20.02;3.15;;;;;;;;;;4973323;28;20034;-57
2022/12/14 03:33:27;;;;;;;23.05;3.00;;;;;;;;;;4973255;28;20050;-58
2022/12/14 03:36:16;;;;;;;18.23;2.35;;;;;;;;;;4973319;28;20023;-57
2022/12/14 03:38:45;;;;;;;16.38;2.38;;;;;;;;;;4973222;28;20388;-58
2022/12/14 03:41:30;;;;;;;18.27;2.47;;;;;;;;;;4973131;28;20030;-56
2022/12/14 03:44:02;;;;;;;13.18;2.20;;;;;;;;;;4973123;28;20038;-57
2022/12/14 03:46:31;;;;;;;16.77;2.40;;;;;;;;;;4973024;28;20054;-57
2022/12/14 03:49:08;;;;;;;21.10;2.90;;;;;;;;;;4973192;28;20492;-57
2022/12/14 03:51:39;;;;;;;17.92;3.00;;;;;;;;;;4973154;28;20023;-55
2022/12/14 03:54:16;;;;;;;18.30;2.85;;;;;;;;;;4973051;28;20093;-57
2022/12/14 03:56:43;;;;;;;13.18;2.15;;;;;;;;;;4973032;28;20492;-57
2022/12/14 03:59:16;;;;;;;19.77;2.45;;;;;;;;;;4972846;28;20065;-57
2022/12/14 04:01:49;;;;;;;18.13;1.70;;;;;;;;;;4972969;28;20031;-55
2022/12/14 04:04:38;;;;;;;14.38;2.13;;;;;;;;;;4972986;28;20053;-58
2022/12/14 04:07:08;;;;;;;16.25;1.85;;;;;;;;;;4972976;28;20027;-58
2022/12/14 04:09:40;;;;;;;11.95;1.58;;;;;;;;;;4976830;28;20027;-58
2022/12/14 04:21:18;;;;;;;9.13;1.10;;;;;;;;;;4976752;28;20042;-56
2022/12/14 04:26:36;;;;;;;7.47;1.25;;;;;;;;;;4976404;28;20041;-57
2022/12/14 04:32:13;;;;;;;13.45;1.65;;;;;;;;;;4976463;28;20417;-56
2022/12/14 04:34:41;;;;;;;11.02;1.45;;;;;;;;;;4976293;28;20130;-56
2022/12/14 04:37:10;;;;;;;13.15;1.67;;;;;;;;;;4976297;28;20026;-56
2022/12/14 04:39:42;;;;;;;12.80;1.80;;;;;;;;;;4976168;28;20194;-54
2022/12/14 04:42:10;;;;;;;27.17;2.83;;;;;;;;;;4976253;28;20102;-56
2022/12/14 04:44:39;;;;;;;54.60;5.75;;;;;;;;;;4976180;28;20031;-56
2022/12/14 04:47:07;;;;;;;53.28;6.93;;;;;;;;;;4976053;28;20153;-57
2022/12/14 04:49:46;;;;;;;33.63;3.97;;;;;;;;;;4975997;28;20031;-56
2022/12/14 04:52:15;;;;;;;43.33;4.90;;;;;;;;;;4975937;28;20030;-54
2022/12/14 04:54:42;;;;;;;29.38;4.18;;;;;;;;;;4975867;28;20054;-57
2022/12/14 04:57:09;;;;;;;31.33;4.28;;;;;;;;;;4975892;28;20037;-56
2022/12/14 04:59:37;;;;;;;22.13;2.50;;;;;;;;;;4976072;28;20493;-55
2022/12/14 05:02:06;;;;;;;25.33;3.13;;;;;;;;;;4975870;28;20033;-55
2022/12/14 05:04:56;;;;;;;24.00;2.97;;;;;;;;;;4975822;28;20027;-57
2022/12/14 05:07:41;;;;;;;25.48;2.58;;;;;;;;;;4937351;28;20409;-56
2022/12/14 05:10:17;;;;;;;21.42;3.00;;;;;;;;;;4975699;28;20039;-57
2022/12/14 05:12:50;;;;;;;17.95;2.38;;;;;;;;;;4975720;28;20058;-56
2022/12/14 05:15:22;;;;;;;12.82;1.83;;;;;;;;;;4975477;28;20080;-57
2022/12/14 05:17:49;;;;;;;14.73;1.88;;;;;;;;;;4975506;28;20117;-55
2022/12/14 05:20:19;;;;;;;15.25;1.20;;;;;;;;;;4974257;28;20508;-56
2022/12/14 05:22:46;;;;;;;9.20;1.50;;;;;;;;;;4975437;28;20019;-54
2022/12/14 05:25:12;;;;;;;10.82;1.48;;;;;;;;;;4975481;28;20023;-56
2022/12/14 05:27:40;;;;;;;14.73;1.67;;;;;;;;;;4975267;28;20023;-57
2022/12/14 05:30:07;;;;;;;18.92;1.67;;;;;;;;;;4975267;28;20496;-55
2022/12/14 05:32:34;;;;;;;13.68;1.67;;;;;;;;;;4975132;28;20051;-56
2022/12/14 05:35:02;;;;;;;15.25;1.40;;;;;;;;;;4975257;28;20037;-57
2022/12/14 05:37:29;;;;;;;11.40;1.58;;;;;;;;;;4957842;28;20046;-52
2022/12/14 05:39:56;;;;;;;13.63;1.30;;;;;;;;;;4975231;28;20038;-56
2022/12/14 05:42:23;;;;;;;8.05;1.70;;;;;;;;;;4975096;28;20385;-56
2022/12/14 05:44:50;;;;;;;10.52;1.25;;;;;;;;;;4975045;28;20030;-57
2022/12/14 05:47:16;;;;;;;13.52;1.70;;;;;;;;;;4974941;28;20027;-56
2022/12/14 05:49:43;;;;;;;16.77;1.70;;;;;;;;;;4974915;28;20030;-57
2022/12/14 05:52:10;;;;;;;18.92;1.63;;;;;;;;;;4974904;28;20046;-57
2022/12/14 05:54:37;;;;;;;12.45;2.08;;;;;;;;;;4974915;28;20033;-56
2022/12/14 05:57:05;;;;;;;12.02;2.10;;;;;;;;;;4974885;28;20031;-55
2022/12/14 05:59:33;;;;;;;17.42;2.38;;;;;;;;;;4974661;28;20039;-58
2022/12/14 06:02:00;;;;;;;17.20;2.35;;;;;;;;;;4983477;28;20049;-57
2022/12/14 06:04:27;;;;;;;20.67;2.10;;;;;;;;;;4994160;28;20485;-57
2022/12/14 06:06:54;;;;;;;20.60;2.03;;;;;;;;;;4994016;28;20034;-57
2022/12/14 06:09:21;;;;;;;16.25;1.92;;;;;;;;;;4993979;28;20034;-56
2022/12/14 06:11:49;;;;;;;15.77;2.08;;;;;;;;;;4994075;28;20122;-57
2022/12/14 06:14:16;;;;;;;21.30;2.10;;;;;;;;;;4993909;28;20031;-55
2022/12/14 06:16:44;;;;;;;13.35;2.05;;;;;;;;;;4993945;28;20030;-54
2022/12/14 06:19:12;;;;;;;17.48;1.73;;;;;;;;;;4993848;28;20065;-56
2022/12/14 06:21:40;;;;;;;20.02;2.10;;;;;;;;;;4993434;28;20476;-56
2022/12/14 06:24:07;;;;;;;17.98;1.50;;;;;;;;;;4993593;28;20080;-55
2022/12/14 06:26:47;;;;;;;12.43;1.55;;;;;;;;;;4993671;28;20082;-55
2022/12/14 06:29:15;;;;;;;11.10;1.73;;;;;;;;;;4993626;28;20031;-55
2022/12/14 06:31:42;;;;;;;11.40;1.35;;;;;;;;;;4992889;28;20034;-55
2022/12/14 06:34:10;;;;;;;8.18;1.13;;;;;;;;;;4993510;28;20061;-56
2022/12/14 06:36:37;;;;;;;16.30;1.58;;;;;;;;;;4993552;28;20091;-53
2022/12/14 06:39:06;;;;;;;8.70;2.00;;;;;;;;;;4993299;28;20085;-51
2022/12/14 06:41:33;;;;;;;16.95;2.53;;;;;;;;;;4993447;28;20105;-54
2022/12/14 06:44:07;;;;;;;11.88;2.50;;;;;;;;;;4993319;28;20031;-51
2022/12/14 06:46:34;;;;;;;10.13;2.20;;;;;;;;;;4993143;28;20049;-52
2022/12/14 06:49:02;;;;;;;11.88;1.65;;;;;;;;;;4992735;28;20046;-54
2022/12/14 06:51:29;;;;;;;10.77;1.63;;;;;;;;;;4993324;28;20101;-55
2022/12/14 06:53:56;;;;;;;7.35;1.73;;;;;;;;;;4993192;28;20026;-51
2022/12/14 06:56:25;;;;;;;11.38;1.48;;;;;;;;;;4993254;28;20033;-49
2022/12/14 06:58:53;;;;;;;10.55;1.20;;;;;;;;;;4993125;28;20073;-52
2022/12/14 07:01:21;;;;;;;6.53;1.23;;;;;;;;;;4993176;28;20027;-52
2022/12/14 07:03:49;;;;;;;15.43;6.35;;;;;;;;;;4993083;28;20491;-54
2022/12/14 07:06:16;;;;;;;13.18;5.28;;;;;;;;;;4992952;28;20080;-52
2022/12/14 07:08:43;;;;;;;16.77;6.10;;;;;;;;;;4992917;28;20030;-53
2022/12/14 07:11:11;;;;;;;14.32;4.65;;;;;;;;;;4992995;28;20030;-52
2022/12/14 07:13:38;;;;;;;14.32;5.28;;;;;;;;;;4992709;28;20104;-50
2022/12/14 07:16:06;;;;;;;17.83;5.68;;;;;;;;;;4992983;28;20022;-52
2022/12/14 07:18:33;;;;;;;16.42;4.70;;;;;;;;;;4992773;28;20053;-54
2022/12/14 07:21:05;;;;;;;18.00;5.18;;;;;;;;;;4992730;28;20031;-56
2022/12/14 07:23:36;;;;;;;17.20;4.15;;;;;;;;;;4992646;28;20066;-57
2022/12/14 07:26:07;;;;;;;11.48;4.00;;;;;;;;;;4992567;28;20034;-57
2022/12/14 07:28:35;;;;;;;23.67;4.38;;;;;;;;;;4992591;28;20443;-56
2022/12/14 07:31:03;;;;;;;15.48;4.22;;;;;;;;;;4992353;28;20039;-55
2022/12/14 07:33:30;;;;;;;13.43;4.10;;;;;;;;;;5008575;28;20057;-57
2022/12/14 07:36:04;;;;;;;13.32;3.58;;;;;;;;;;5012348;28;20038;-57
2022/12/14 07:38:32;;;;;;;13.50;3.88;;;;;;;;;;5012280;28;20084;-56
2022/12/14 07:41:06;;;;;;;17.67;3.60;;;;;;;;;;5011900;28;20092;-57
2022/12/14 07:43:33;;;;;;;12.15;3.67;;;;;;;;;;5011368;28;20113;-54
2022/12/14 07:46:00;;;;;;;13.73;3.05;;;;;;;;;;5012135;28;20407;-57
2022/12/14 07:48:27;;;;;;;9.95;2.85;;;;;;;;;;5011954;28;20029;-57
2022/12/14 07:50:54;;;;;;;13.65;2.78;;;;;;;;;;5011996;28;20049;-57
2022/12/14 07:53:21;;;;;;;14.35;2.70;;;;;;;;;;5012154;28;20026;-56
2022/12/14 07:55:49;;;;;;;15.27;2.67;;;;;;;;;;5012040;28;20034;-56
2022/12/14 07:58:16;;;;;;;16.20;2.90;;;;;;;;;;5011821;28;20037;-52
2022/12/14 08:00:43;;;;;;;31.67;3.95;;;;;;;;;;5012021;28;20029;-54
2022/12/14 08:03:10;;;;;;;48.75;5.53;;;;;;;;;;5011944;28;20029;-58
2022/12/14 08:05:40;;;;;;;27.98;3.78;;;;;;;;;;5011907;28;20034;-53
2022/12/14 08:08:07;;;;;;;29.15;4.05;;;;;;;;;;5011893;28;20061;-52
2022/12/14 08:10:34;;;;;;;29.92;3.28;;;;;;;;;;5011743;28;20038;-53
2022/12/14 08:13:01;;;;;;;23.92;3.30;;;;;;;;;;5011921;28;20030;-55
2022/12/14 08:15:28;;;;;;;28.83;3.25;;;;;;;;;;5011706;28;20134;-51
2022/12/14 08:17:55;;;;;;;19.73;2.47;;;;;;;;;;5011714;28;20488;-54
2022/12/14 08:20:22;;;;;;;22.02;3.55;;;;;;;;;;5011687;28;20084;-53
2022/12/14 08:22:51;;;;;;;19.65;2.90;;;;;;;;;;5011807;28;20042;-50
2022/12/14 08:25:18;;;;;;;22.65;3.17;;;;;;;;;;5011813;28;20022;-55
2022/12/14 08:27:45;;;;;;;24.00;3.00;;;;;;;;;;5011708;28;20080;-56
2022/12/14 08:30:12;;;;;;;17.23;2.63;;;;;;;;;;5011700;28;20121;-55
2022/12/14 08:32:39;;;;;;;29.55;3.40;;;;;;;;;;5011809;28;20060;-52
2022/12/14 08:35:06;;;;;;;35.53;3.17;;;;;;;;;;5011694;28;20028;-54
2022/12/14 08:37:33;;;;;;;33.28;3.88;;;;;;;;;;5011720;28;20438;-51
2022/12/14 08:40:00;;;;;;;53.95;4.65;;;;;;;;;;4993889;28;20516;-57
2022/12/14 08:42:27;;;;;;;52.45;6.53;;;;;;;;;;5011637;28;20034;-54
2022/12/14 08:44:54;;;;;;;71.78;6.18;;;;;;;;;;5011432;28;20369;-56
2022/12/14 08:47:21;;;;;;;68.03;6.78;;;;;;;;;;5011511;28;20030;-53
2022/12/14 08:49:47;;;;;;;78.13;7.68;;;;;;;;;;5011571;28;20049;-53
2022/12/14 08:52:15;;;;;;;85.63;8.52;;;;;;;;;;5011330;28;20407;-55
2022/12/14 08:54:42;;;;;;;63.05;7.15;;;;;;;;;;5014100;28;20034;-50
2022/12/14 08:57:09;;;;;;;67.10;6.90;;;;;;;;;;5014989;28;20125;-54
2022/12/14 08:59:35;;;;;;;73.68;7.05;;;;;;;;;;5014699;28;20083;-54
2022/12/14 09:02:02;;;;;;;57.45;6.60;;;;;;;;;;5014965;28;20160;-56
2022/12/14 09:04:29;;;;;;;42.28;5.63;;;;;;;;;;5014847;28;20030;-55
2022/12/14 09:06:56;;;;;;;35.72;4.00;;;;;;;;;;5014817;28;20526;-52
2022/12/14 09:09:23;;;;;;;67.45;7.28;;;;;;;;;;5014773;28;20025;-51
2022/12/14 09:11:50;;;;;;;120.78;13.55;;;;;;;;;;5014675;28;20037;-57
2022/12/14 09:14:17;;;;;;;98.82;10.52;;;;;;;;;;5014720;28;20159;-50
2022/12/14 09:16:44;;;;;;;71.28;8.68;;;;;;;;;;5014485;28;20124;-54
2022/12/14 09:19:11;;;;;;;64.80;9.15;;;;;;;;;;5014648;28;20026;-55
2022/12/14 09:21:38;;;;;;;65.50;8.48;;;;;;;;;;5014583;28;20491;-53
2022/12/14 09:24:06;;;;;;;115.25;13.75;;;;;;;;;;5014473;28;20474;-51
2022/12/14 09:26:33;;;;;;;136.40;15.38;;;;;;;;;;5014448;28;20057;-55
2022/12/14 09:29:00;;;;;;;185.25;20.25;;;;;;;;;;5014226;28;20069;-53
2022/12/14 09:31:27;;;;;;;158.95;17.50;;;;;;;;;;5014230;28;20033;-51
2022/12/14 09:33:55;;;;;;;142.10;16.67;;;;;;;;;;5014104;28;20120;-57
2022/12/14 09:36:23;;;;;;;108.18;13.88;;;;;;;;;;5014251;28;20033;-55
2022/12/14 09:38:53;;;;;;;97.32;12.25;;;;;;;;;;5014140;28;20030;-56
2022/12/14 09:41:35;;;;;;;90.82;11.32;;;;;;;;;;5013969;28;20037;-54
2022/12/14 09:44:05;;;;;;;75.20;9.13;;;;;;;;;;5014167;28;20029;-53
2022/12/14 09:46:46;;;;;;;80.25;9.43;;;;;;;;;;5014046;28;20507;-54
2022/12/14 09:49:24;;;;;;;85.38;10.30;;;;;;;;;;5013844;28;20105;-53
2022/12/14 09:51:51;;;;;;;145.05;16.08;;;;;;;;;;5013967;28;20033;-57
2022/12/14 09:54:22;;;;;;;160.00;14.93;;;;;;;;;;5013904;28;20054;-52
2022/12/14 09:56:49;;;;;;;133.45;13.07;;;;;;;;;;5013598;28;20034;-53
2022/12/14 09:59:19;;;;;;;104.93;10.50;;;;;;;;;;5013653;28;20396;-55
2022/12/14 10:02:04;;;;;;;91.35;10.13;;;;;;;;;;5013726;28;20042;-54
2022/12/14 10:04:46;;;;;;;89.03;10.15;;;;;;;;;;5013788;28;20169;-51
2022/12/14 10:07:18;;;;;;;92.35;11.40;;;;;;;;;;5013391;28;20034;-53
2022/12/14 10:09:51;;;;;;;81.10;8.55;;;;;;;;;;5012244;28;20034;-53
2022/12/14 10:12:18;;;;;;;81.90;8.25;;;;;;;;;;5013672;28;20053;-52
2022/12/14 10:14:54;;;;;;;71.38;7.20;;;;;;;;;;5013502;28;20034;-53
2022/12/14 10:17:21;;;;;;;81.05;8.55;;;;;;;;;;5013434;28;20408;-53
2022/12/14 10:20:00;;;;;;;95.93;9.73;;;;;;;;;;5013234;28;20034;-49
2022/12/14 10:22:31;;;;;;;76.95;8.55;;;;;;;;;;5013314;28;20049;-52
2022/12/14 10:25:04;;;;;;;55.95;6.75;;;;;;;;;;5013358;28;20022;-52
2022/12/14 10:27:33;;;;;;;67.03;7.07;;;;;;;;;;5013113;28;20042;-51
2022/12/14 10:30:02;;;;;;;98.28;11.10;;;;;;;;;;5013143;28;20038;-54
2022/12/14 10:32:34;;;;;;;96.47;15.93;;;;;;;;;;5012989;28;20081;-56
2022/12/14 10:35:13;;;;;;;71.65;11.25;;;;;;;;;;5013312;28;20026;-51
2022/12/14 10:37:43;;;;;;;76.68;12.70;;;;;;;;;;5013065;28;20030;-52
2022/12/14 10:40:10;;;;;;;108.13;18.20;;;;;;;;;;5013131;28;20076;-52
2022/12/14 10:42:52;;;;;;;148.43;23.63;;;;;;;;;;5013100;28;20463;-54
2022/12/14 10:45:37;;;;;;;92.72;13.82;;;;;;;;;;5011011;28;20034;-54
2022/12/14 10:48:04;;;;;;;83.60;11.93;;;;;;;;;;5012601;28;20041;-52
2022/12/14 10:50:34;;;;;;;68.63;10.10;;;;;;;;;;5012695;28;20030;-53
2022/12/14 10:53:02;;;;;;;70.03;12.27;;;;;;;;;;5017374;28;20543;-53
2022/12/14 10:55:32;;;;;;;130.30;16.55;;;;;;;;;;5016809;28;20175;-55
2022/12/14 10:58:00;;;;;;;166.43;17.88;;;;;;;;;;5023973;28;20033;-51
2022/12/14 11:00:27;;;;;;;119.70;16.20;;;;;;;;;;5025473;28;20033;-56
2022/12/14 11:02:55;;;;;;;87.82;13.55;;;;;;;;;;5012103;28;20032;-54
2022/12/14 11:05:37;;;;;;;79.88;10.68;;;;;;;;;;5027731;28;20035;-52
2022/12/14 11:08:07;;;;;;;56.57;9.77;;;;;;;;;;5026836;28;20038;-53
2022/12/14 11:10:35;;;;;;;68.75;10.52;;;;;;;;;;5019057;28;20296;-49
2022/12/14 11:13:05;;;;;;;61.67;9.98;;;;;;;;;;5012147;28;20041;-53
2022/12/14 11:15:32;;;;;;;49.63;8.80;;;;;;;;;;5026321;28;20041;-50
2022/12/14 11:18:04;;;;;;;74.28;9.20;;;;;;;;;;5027019;28;20038;-56
2022/12/14 11:20:32;;;;;;;83.28;9.90;;;;;;;;;;5019155;28;20057;-52
2022/12/14 11:23:07;;;;;;;52.88;7.40;;;;;;;;;;5011711;28;20034;-55
2022/12/14 11:25:41;;;;;;;51.95;7.93;;;;;;;;;;5018862;28;20030;-56
2022/12/14 11:28:28;;;;;;;46.30;7.82;;;;;;;;;;5011900;28;20132;-54
2022/12/14 11:31:04;;;;;;;54.80;7.93;;;;;;;;;;5031646;28;20099;-51
2022/12/14 11:33:41;;;;;;;54.47;7.30;;;;;;;;;;5027188;28;20068;-57
2022/12/14 11:36:08;;;;;;;59.08;8.25;;;;;;;;;;5031023;28;20025;-55
2022/12/14 11:38:35;;;;;;;57.88;7.80;;;;;;;;;;5031547;28;20449;-57
2022/12/14 11:41:03;;;;;;;54.83;7.70;;;;;;;;;;5025604;28;20121;-57
2022/12/14 11:43:37;;;;;;;59.80;7.00;;;;;;;;;;5025415;28;20041;-54
2022/12/14 11:46:05;;;;;;;46.00;6.72;;;;;;;;;;5029999;28;20107;-58
2022/12/14 11:48:35;;;;;;;51.42;5.90;;;;;;;;;;5030685;28;20118;-57
2022/12/14 11:51:30;;;;;;;50.67;6.88;;;;;;;;;;5021476;28;20041;-47
2022/12/14 11:54:07;;;;;;;47.67;5.97;;;;;;;;;;4991904;28;20122;-50
2022/12/14 11:56:36;;;;;;;45.95;5.53;;;;;;;;;;4991916;28;20145;-48
2022/12/14 11:59:04;;;;;;;45.67;4.68;;;;;;;;;;5009673;28;20108;-48
2022/12/14 12:01:32;;;;;;;27.70;3.90;;;;;;;;;;5031048;28;20059;-51
2022/12/14 12:03:59;;;;;;;28.20;3.22;;;;;;;;;;5017313;28;20038;-48
2022/12/14 12:06:27;;;;;;;22.23;3.47;;;;;;;;;;5011661;28;20033;-47
2022/12/14 12:09:02;;;;;;;21.98;2.88;;;;;;;;;;4993599;28;20538;-47
2022/12/14 12:11:33;;;;;;;54.67;5.45;;;;;;;;;;5011317;28;20053;-50
2022/12/14 12:14:01;;;;;;;39.17;3.78;;;;;;;;;;5011902;28;20045;-47
2022/12/14 12:16:31;;;;;;;42.00;4.10;;;;;;;;;;5011333;28;20030;-51
2022/12/14 12:19:17;;;;;;;84.32;8.80;;;;;;;;;;5011095;28;20037;-51
2022/12/14 12:21:45;;;;;;;43.45;5.00;;;;;;;;;;5011643;28;20037;-49
2022/12/14 12:24:16;;;;;;;35.85;4.00;;;;;;;;;;5011101;28;20030;-48
2022/12/14 12:26:59;;;;;;;48.60;5.18;;;;;;;;;;5011457;28;20038;-50
2022/12/14 12:29:29;;;;;;;34.70;4.95;;;;;;;;;;5013820;28;20077;-49
2022/12/14 12:31:58;;;;;;;85.10;9.38;;;;;;;;;;5014577;28;20053;-46
2022/12/14 12:34:28;;;;;;;53.90;5.80;;;;;;;;;;5015295;28;20100;-49
2022/12/14 12:36:56;;;;;;;49.40;5.20;;;;;;;;;;5015178;28;20028;-50
2022/12/14 12:39:25;;;;;;;43.95;6.03;;;;;;;;;;5014405;28;20034;-54
2022/12/14 12:42:15;;;;;;;39.08;5.43;;;;;;;;;;5014535;28;20041;-50
2022/12/14 12:44:45;;;;;;;25.25;3.35;;;;;;;;;;5009703;28;20045;-47
2022/12/14 12:47:24;;;;;;;29.42;4.28;;;;;;;;;;5014377;28;20749;-54
2022/12/14 12:49:51;;;;;;;25.75;4.00;;;;;;;;;;5014965;28;20045;-56
2022/12/14 12:52:24;;;;;;;25.83;3.45;;;;;;;;;;5014636;28;20200;-50
2022/12/14 12:54:53;;;;;;;19.50;3.05;;;;;;;;;;5014797;28;20033;-50
2022/12/14 12:57:21;;;;;;;26.27;4.20;;;;;;;;;;5014938;28;20508;-53
2022/12/14 12:59:53;;;;;;;18.38;3.20;;;;;;;;;;5014138;28;20479;-52
2022/12/14 13:02:43;;;;;;;26.33;4.25;;;;;;;;;;4997451;28;20033;-49
2022/12/14 13:05:17;;;;;;;35.00;4.80;;;;;;;;;;5014626;28;20030;-51
2022/12/14 13:07:47;;;;;;;31.85;4.05;;;;;;;;;;5014079;28;20065;-47
2022/12/14 13:10:17;;;;;;;27.60;3.35;;;;;;;;;;5014600;28;20022;-49
2022/12/14 13:12:48;;;;;;;27.90;4.47;;;;;;;;;;5014310;28;20095;-49
2022/12/14 13:15:19;;;;;;;19.52;3.30;;;;;;;;;;5014105;28;20519;-50
2022/12/14 13:18:06;;;;;;;33.35;4.43;;;;;;;;;;5014401;28;20030;-47
2022/12/14 13:20:34;;;;;;;25.88;4.10;;;;;;;;;;5007124;28;20046;-48
2022/12/14 13:23:02;;;;;;;27.70;3.72;;;;;;;;;;5016307;28;20380;-49
2022/12/14 13:25:38;;;;;;;34.72;4.57;;;;;;;;;;5016724;28;20494;-50
2022/12/14 13:28:43;;;;;;;31.13;5.20;;;;;;;;;;5005763;28;20398;-56
2022/12/14 13:31:13;;;;;;;31.27;4.97;;;;;;;;;;4944334;29;20079;-55
2022/12/14 13:33:40;;;;;;;26.38;4.38;;;;;;;;;;4940955;29;20048;-51
2022/12/14 13:36:16;;;;;;;24.75;4.20;;;;;;;;;;4983325;28;20041;-51
2022/12/14 13:38:59;;;;;;;24.05;4.00;;;;;;;;;;5013583;28;20506;-51
2022/12/14 13:41:25;;;;;;;36.63;4.55;;;;;;;;;;5012709;28;20053;-50
2022/12/14 13:44:15;;;;;;;31.88;4.65;;;;;;;;;;5013748;28;20128;-48
2022/12/14 13:46:42;;;;;;;37.70;7.45;;;;;;;;;;5003895;28;20165;-52
2022/12/14 13:49:17;;;;;;;40.88;6.85;;;;;;;;;;5013436;28;20044;-48
2022/12/14 13:51:48;;;;;;;43.05;7.13;;;;;;;;;;5013288;28;20089;-49
2022/12/14 13:54:33;;;;;;;39.85;6.38;;;;;;;;;;5013587;28;20392;-52
2022/12/14 13:57:03;;;;;;;53.13;7.32;;;;;;;;;;5013488;28;20065;-49
2022/12/14 13:59:35;;;;;;;46.63;7.07;;;;;;;;;;5013350;28;20034;-50
2022/12/14 14:02:03;;;;;;;48.67;5.05;;;;;;;;;;5013122;28;20080;-55
2022/12/14 14:04:31;;;;;;;31.88;5.15;;;;;;;;;;5013183;28;20052;-51
2022/12/14 14:07:17;;;;;;;39.03;5.45;;;;;;;;;;5013001;28;20085;-51
2022/12/14 14:09:44;;;;;;;42.60;6.05;;;;;;;;;;5013078;28;20034;-48
2022/12/14 14:12:31;;;;;;;37.80;5.82;;;;;;;;;;5013087;28;20040;-49
2022/12/14 14:15:17;;;;;;;41.15;5.57;;;;;;;;;;5013022;28;20033;-47
2022/12/14 14:17:49;;;;;;;43.05;6.18;;;;;;;;;;5012933;28;20042;-47
2022/12/14 14:20:37;;;;;;;45.40;6.20;;;;;;;;;;5013183;28;20049;-51
2022/12/14 14:23:14;;;;;;;42.22;6.28;;;;;;;;;;5012359;28;20399;-48
2022/12/14 14:25:41;;;;;;;35.92;4.80;;;;;;;;;;5012821;28;20117;-48
2022/12/14 14:28:11;;;;;;;33.50;5.32;;;;;;;;;;5012956;28;20038;-50
2022/12/14 14:30:41;;;;;;;27.80;4.63;;;;;;;;;;5012485;28;20022;-48
2022/12/14 14:33:27;;;;;;;36.40;5.32;;;;;;;;;;5012659;28;20046;-48
2022/12/14 14:36:07;;;;;;;34.85;4.88;;;;;;;;;;5013029;28;20042;-51
2022/12/14 14:38:36;;;;;;;34.38;5.35;;;;;;;;;;5012726;28;20030;-51
2022/12/14 14:41:10;;;;;;;37.25;4.88;;;;;;;;;;5012670;28;20029;-51
2022/12/14 14:43:39;;;;;;;32.78;5.00;;;;;;;;;;5012342;28;20042;-52
2022/12/14 14:46:07;;;;;;;30.60;5.03;;;;;;;;;;5012550;28;20026;-50
2022/12/14 14:48:42;;;;;;;38.40;4.57;;;;;;;;;;5012542;28;20069;-50
2022/12/14 14:51:17;;;;;;;34.28;4.90;;;;;;;;;;5011990;28;20538;-56
2022/12/14 14:53:44;;;;;;;29.20;5.07;;;;;;;;;;5012265;28;20034;-56
2022/12/14 14:56:29;;;;;;;30.48;4.78;;;;;;;;;;5012493;28;20037;-57
2022/12/14 14:59:14;;;;;;;40.22;5.57;;;;;;;;;;5012037;28;20144;-51
2022/12/14 15:02:02;;;;;;;42.92;4.95;;;;;;;;;;5012462;28;20052;-50
2022/12/14 15:04:40;;;;;;;34.70;4.40;;;;;;;;;;5012331;28;20042;-48